Time;durP1;ratioP1;P1;durP2;ratioP2;P2;SDS_P1;SDS_P2;PMS_P1;PMS_P2;Temp;Humidity;BMP_temperature;BMP_pressure;BME280_temperature;BME280_humidity;BME280_pressure;Samples;Min_cycle;Max_cycle;Signal;HPM_P1;HPM_P2
2024/01/08 00:01:33;;;;;;;8.60;3.33;;;-3.50;93.40;;;;;;4995690;28;20438;-63
2024/01/08 00:03:59;;;;;;;9.98;4.10;;;-3.50;94.00;;;;;;4995051;28;20034;-63
2024/01/08 00:06:25;;;;;;;10.13;3.95;;;-3.50;93.80;;;;;;4994853;28;20038;-63
2024/01/08 00:08:51;;;;;;;12.50;4.28;;;-3.60;94.00;;;;;;4997364;28;20038;-63
2024/01/08 00:11:16;;;;;;;7.60;3.45;;;-3.60;93.70;;;;;;4991551;28;20540;-63
2024/01/08 00:13:42;;;;;;;11.75;3.28;;;-3.60;93.60;;;;;;4993729;28;20030;-63
2024/01/08 00:16:08;;;;;;;8.30;3.53;;;-3.60;93.70;;;;;;4996457;28;20619;-63
2024/01/08 00:18:34;;;;;;;9.73;4.15;;;-3.60;93.70;;;;;;4991411;28;20026;-63
2024/01/08 00:21:02;;;;;;;6.20;3.00;;;-3.70;93.50;;;;;;4997247;28;20038;-63
2024/01/08 00:23:29;;;;;;;8.18;3.63;;;-3.80;93.70;;;;;;4994260;28;20049;-63
2024/01/08 00:25:55;;;;;;;6.88;3.55;;;-3.80;94.50;;;;;;4997753;28;20556;-63
2024/01/08 00:28:21;;;;;;;11.27;4.28;;;-3.70;94.70;;;;;;4994380;28;20042;-63
2024/01/08 00:30:47;;;;;;;10.27;3.88;;;-3.80;94.30;;;;;;4994821;28;20029;-63
2024/01/08 00:33:12;;;;;;;9.30;4.45;;;-3.80;94.30;;;;;;4995556;28;20034;-63
2024/01/08 00:35:38;;;;;;;7.97;4.10;;;-3.80;94.60;;;;;;4997136;28;20029;-63
2024/01/08 00:38:04;;;;;;;7.22;4.15;;;-3.90;94.70;;;;;;4993892;28;20065;-63
2024/01/08 00:40:30;;;;;;;8.82;3.38;;;-3.90;94.60;;;;;;4997067;28;20048;-63
2024/01/08 00:42:57;;;;;;;13.77;4.40;;;-3.90;94.90;;;;;;4992415;28;20409;-63
2024/01/08 00:45:23;;;;;;;8.40;3.67;;;-3.90;95.10;;;;;;4994223;28;20031;-63
2024/01/08 00:47:49;;;;;;;11.40;4.03;;;-3.90;95.10;;;;;;4995062;28;20030;-63
2024/01/08 00:50:16;;;;;;;9.18;3.97;;;-4.00;95.40;;;;;;4992755;28;20504;-63
2024/01/08 00:52:42;;;;;;;9.82;4.32;;;-4.00;95.00;;;;;;4995276;28;20061;-63
2024/01/08 00:55:11;;;;;;;13.10;4.50;;;-4.00;95.20;;;;;;4994614;28;20031;-63
2024/01/08 00:57:37;;;;;;;8.77;4.28;;;-4.10;94.90;;;;;;4994635;28;20030;-63
2024/01/08 01:00:04;;;;;;;9.50;3.35;;;-4.00;95.30;;;;;;5009507;28;20623;-63
2024/01/08 01:02:30;;;;;;;10.43;3.88;;;-4.00;95.90;;;;;;4993810;28;20727;-62
2024/01/08 01:04:56;;;;;;;11.40;4.47;;;-4.00;96.00;;;;;;4996899;28;20512;-63
2024/01/08 01:07:22;;;;;;;13.50;4.15;;;-4.10;95.60;;;;;;5001280;28;20026;-63
2024/01/08 01:09:48;;;;;;;8.70;3.28;;;-4.10;95.20;;;;;;4998974;28;20044;-63
2024/01/08 01:12:14;;;;;;;11.40;3.80;;;-4.10;95.50;;;;;;4993557;28;20057;-63
2024/01/08 01:14:39;;;;;;;8.10;4.30;;;-4.10;96.00;;;;;;5000551;28;20508;-63
2024/01/08 01:17:06;;;;;;;9.10;3.97;;;-4.10;96.00;;;;;;5002270;28;20030;-63
2024/01/08 01:19:32;;;;;;;8.00;3.53;;;-4.10;95.90;;;;;;5000254;28;20042;-63
2024/01/08 01:21:58;;;;;;;11.07;4.47;;;-4.20;95.90;;;;;;4998989;28;20409;-63
2024/01/08 01:24:24;;;;;;;9.43;3.50;;;-4.20;95.60;;;;;;4994039;28;20034;-63
2024/01/08 01:26:50;;;;;;;9.20;3.70;;;-4.30;95.90;;;;;;5000424;28;20489;-63
2024/01/08 01:29:16;;;;;;;9.35;3.75;;;-4.30;96.00;;;;;;4996845;28;20026;-63
2024/01/08 01:31:42;;;;;;;13.18;4.40;;;-4.30;96.30;;;;;;5000962;28;20038;-63
2024/01/08 01:34:10;;;;;;;10.90;4.22;;;-4.30;96.20;;;;;;4998300;28;20120;-63
2024/01/08 01:36:37;;;;;;;7.43;3.85;;;-4.20;96.30;;;;;;4998509;28;20498;-63
2024/01/08 01:39:06;;;;;;;11.80;4.35;;;-4.30;95.20;;;;;;4999037;28;20049;-63
2024/01/08 01:41:32;;;;;;;9.70;4.13;;;-4.40;95.60;;;;;;4999716;28;20034;-63
2024/01/08 01:43:58;;;;;;;9.98;4.40;;;-4.40;96.20;;;;;;5000595;28;20038;-63
2024/01/08 01:46:45;;;;;;;9.88;4.25;;;-4.30;96.50;;;;;;4999294;28;20034;-63
2024/01/08 01:49:13;;;;;;;9.68;3.63;;;-4.30;96.50;;;;;;4993227;28;20038;-63
2024/01/08 01:51:44;;;;;;;7.90;3.95;;;-4.30;96.20;;;;;;4998724;28;20038;-63
2024/01/08 01:54:12;;;;;;;10.18;4.10;;;-4.30;96.30;;;;;;4997450;28;20041;-63
2024/01/08 01:56:40;;;;;;;7.28;3.55;;;-4.30;96.40;;;;;;4997199;28;20038;-63
2024/01/08 01:59:07;;;;;;;8.75;3.25;;;-4.30;96.60;;;;;;4999052;28;20044;-63
2024/01/08 02:01:35;;;;;;;7.88;4.18;;;-4.40;96.50;;;;;;4997268;28;20031;-63
2024/01/08 02:04:02;;;;;;;8.77;4.43;;;-4.40;96.30;;;;;;4999171;28;20045;-63
2024/01/08 02:06:29;;;;;;;12.23;4.15;;;-4.40;96.50;;;;;;4993907;28;20021;-63
2024/01/08 02:08:54;;;;;;;8.57;4.32;;;-4.30;96.80;;;;;;4998123;28;20069;-63
2024/01/08 02:11:21;;;;;;;8.15;4.05;;;-4.40;96.80;;;;;;4995997;28;20510;-63
2024/01/08 02:13:48;;;;;;;9.05;3.80;;;-4.40;96.90;;;;;;5000306;28;20113;-63
2024/01/08 02:16:14;;;;;;;8.50;3.88;;;-4.40;96.70;;;;;;4997135;28;20057;-63
2024/01/08 02:18:40;;;;;;;8.50;3.55;;;-4.40;97.00;;;;;;4997443;28;20034;-63
2024/01/08 02:21:06;;;;;;;9.73;3.85;;;-4.40;96.70;;;;;;4996747;28;20048;-63
2024/01/08 02:23:33;;;;;;;13.07;4.88;;;-4.50;96.70;;;;;;4993429;28;20128;-63
2024/01/08 02:25:58;;;;;;;9.38;3.53;;;-4.40;97.10;;;;;;4998835;28;20045;-63
2024/01/08 02:28:24;;;;;;;7.13;3.47;;;-4.50;97.40;;;;;;4995886;28;20030;-63
2024/01/08 02:30:50;;;;;;;11.35;4.70;;;-4.50;97.30;;;;;;4994009;28;20038;-63
2024/01/08 02:33:16;;;;;;;10.55;4.43;;;-4.50;97.40;;;;;;4998489;28;20054;-63
2024/01/08 02:35:41;;;;;;;7.55;3.85;;;-4.50;97.30;;;;;;4998546;28;20725;-63
2024/01/08 02:38:07;;;;;;;8.48;3.70;;;-4.50;97.10;;;;;;4997781;28;20022;-63
2024/01/08 02:40:33;;;;;;;9.05;3.83;;;-4.50;97.40;;;;;;4995371;28;20520;-63
2024/01/08 02:42:59;;;;;;;11.60;4.25;;;-4.60;97.30;;;;;;4996547;28;20818;-63
2024/01/08 02:45:24;;;;;;;5.75;4.18;;;-4.70;96.50;;;;;;4996172;28;20065;-64
2024/01/08 02:47:50;;;;;;;10.18;3.83;;;-4.70;96.40;;;;;;4994845;28;20527;-63
2024/01/08 02:50:16;;;;;;;8.35;4.05;;;-4.70;96.70;;;;;;4994494;28;20085;-63
2024/01/08 02:52:44;;;;;;;10.20;4.43;;;-4.60;97.20;;;;;;4998437;28;20033;-63
2024/01/08 02:55:10;;;;;;;10.60;4.55;;;-4.60;96.50;;;;;;4991940;28;20128;-63
2024/01/08 02:57:36;;;;;;;10.05;4.45;;;-4.60;95.90;;;;;;4996562;28;20486;-63
2024/01/08 03:00:04;;;;;;;8.05;3.80;;;-4.60;95.80;;;;;;4996935;28;20041;-63
2024/01/08 03:02:31;;;;;;;8.13;3.75;;;-4.60;95.40;;;;;;4993166;28;20048;-63
2024/01/08 03:04:57;;;;;;;8.30;3.65;;;-4.60;95.30;;;;;;5000639;28;20151;-63
2024/01/08 03:07:23;;;;;;;12.55;4.10;;;-4.70;94.90;;;;;;4995183;28;20683;-63
2024/01/08 03:09:49;;;;;;;8.75;3.60;;;-4.70;95.60;;;;;;4998120;28;20038;-63
2024/01/08 03:12:15;;;;;;;7.97;3.95;;;-4.80;95.00;;;;;;4996815;28;20111;-63
2024/01/08 03:14:46;;;;;;;12.52;4.88;;;-4.70;95.80;;;;;;4996063;28;20030;-63
2024/01/08 03:17:12;;;;;;;9.60;4.38;;;-4.70;95.40;;;;;;4999701;28;20056;-63
2024/01/08 03:19:38;;;;;;;10.95;4.15;;;-4.60;95.30;;;;;;4994462;28;20100;-63
2024/01/08 03:22:04;;;;;;;11.38;4.35;;;-4.70;95.30;;;;;;4991692;28;20685;-63
2024/01/08 03:24:31;;;;;;;10.93;3.83;;;-4.80;94.90;;;;;;4996158;28;20034;-63
2024/01/08 03:26:57;;;;;;;12.95;4.78;;;-4.70;94.80;;;;;;4995577;28;20026;-63
2024/01/08 03:29:23;;;;;;;9.73;3.55;;;-4.70;94.40;;;;;;4993867;28;20041;-63
2024/01/08 03:31:49;;;;;;;9.32;4.25;;;-4.80;95.40;;;;;;4998122;28;20708;-63
2024/01/08 03:34:15;;;;;;;6.82;3.97;;;-4.80;94.60;;;;;;4994622;28;20037;-63
2024/01/08 03:36:45;;;;;;;7.70;3.83;;;-4.70;94.60;;;;;;4998751;28;20022;-63
2024/01/08 03:39:12;;;;;;;8.50;3.75;;;-4.70;94.80;;;;;;4997257;28;20037;-63
2024/01/08 03:41:39;;;;;;;7.80;3.30;;;-4.70;94.30;;;;;;4996646;28;20477;-63
2024/01/08 03:44:06;;;;;;;12.05;3.63;;;-4.60;94.70;;;;;;4996434;28;20040;-63
2024/01/08 03:46:32;;;;;;;12.88;4.18;;;-4.60;94.90;;;;;;4994393;28;20125;-63
2024/01/08 03:48:57;;;;;;;11.10;3.95;;;-4.50;95.00;;;;;;4994142;28;20184;-63
2024/01/08 03:51:23;;;;;;;9.23;3.38;;;-4.70;94.20;;;;;;4997312;28;20117;-63
2024/01/08 03:53:49;;;;;;;9.13;3.67;;;-4.60;94.70;;;;;;4995303;28;20036;-63
2024/01/08 03:56:15;;;;;;;8.25;4.10;;;-4.60;94.50;;;;;;4994672;28;20524;-63
2024/01/08 03:58:41;;;;;;;9.43;4.05;;;-4.60;94.60;;;;;;4993828;28;20076;-63
2024/01/08 04:01:06;;;;;;;11.95;4.07;;;-4.60;94.30;;;;;;4997679;28;20037;-63
2024/01/08 04:03:32;;;;;;;9.93;4.32;;;-4.60;94.50;;;;;;4994881;28;20719;-63
2024/01/08 04:05:58;;;;;;;7.07;3.80;;;-4.60;93.90;;;;;;4993562;28;20033;-63
2024/01/08 04:08:23;;;;;;;9.48;4.30;;;-4.60;94.10;;;;;;4992879;28;20041;-63
2024/01/08 04:10:49;;;;;;;9.05;3.97;;;-4.60;94.80;;;;;;4995250;28;20026;-63
2024/01/08 04:13:15;;;;;;;10.77;4.93;;;-4.60;94.10;;;;;;4993750;28;20076;-63
2024/01/08 04:15:41;;;;;;;6.45;3.53;;;-4.60;94.00;;;;;;4996351;28;20250;-63
2024/01/08 04:18:06;;;;;;;13.25;4.88;;;-4.50;94.30;;;;;;4994954;28;20041;-63
2024/01/08 04:20:32;;;;;;;9.48;3.78;;;-4.50;94.80;;;;;;4994218;28;20042;-63
2024/01/08 04:22:58;;;;;;;8.50;3.85;;;-4.50;94.40;;;;;;4998830;28;20049;-63
2024/01/08 04:25:24;;;;;;;17.92;4.63;;;-4.50;94.80;;;;;;4992809;28;20030;-63
2024/01/08 04:27:49;;;;;;;9.68;3.70;;;-4.50;95.00;;;;;;4996575;28;20116;-63
2024/01/08 04:30:15;;;;;;;10.20;4.53;;;-4.60;94.80;;;;;;4997624;28;20033;-63
2024/01/08 04:32:41;;;;;;;12.98;4.13;;;-4.60;93.80;;;;;;4991190;28;20030;-63
2024/01/08 04:35:07;;;;;;;6.85;3.90;;;-4.70;93.70;;;;;;4994759;28;20053;-63
2024/01/08 04:37:33;;;;;;;8.93;3.38;;;-4.70;93.60;;;;;;4995866;28;20045;-63
2024/01/08 04:39:59;;;;;;;12.10;3.78;;;-4.70;94.10;;;;;;4998253;28;20472;-63
2024/01/08 04:42:25;;;;;;;11.32;4.13;;;-4.60;94.70;;;;;;4995860;28;20047;-63
2024/01/08 04:44:50;;;;;;;7.65;3.40;;;-4.60;94.80;;;;;;4994575;28;20038;-63
2024/01/08 04:47:16;;;;;;;12.25;4.00;;;-4.60;94.90;;;;;;4997788;28;20033;-63
2024/01/08 04:49:42;;;;;;;9.18;4.30;;;-4.60;95.20;;;;;;4995225;28;20056;-63
2024/01/08 04:52:08;;;;;;;10.32;3.67;;;-4.60;95.50;;;;;;4993660;28;20053;-63
2024/01/08 04:54:33;;;;;;;9.38;4.18;;;-4.60;95.40;;;;;;4994573;28;20081;-63
2024/01/08 04:56:59;;;;;;;9.15;4.20;;;-4.60;95.20;;;;;;4998030;28;20088;-63
2024/01/08 04:59:25;;;;;;;11.98;4.45;;;-4.60;95.50;;;;;;4995852;28;20124;-63
2024/01/08 05:01:51;;;;;;;9.40;3.72;;;-4.60;95.90;;;;;;4997194;28;20033;-63
2024/01/08 05:04:17;;;;;;;11.45;3.85;;;-4.60;95.80;;;;;;4993805;28;20081;-63
2024/01/08 05:06:47;;;;;;;9.60;3.95;;;-4.70;95.50;;;;;;4992663;28;20030;-63
2024/01/08 05:09:13;;;;;;;10.27;4.15;;;-4.60;95.80;;;;;;4995524;28;20184;-63
2024/01/08 05:11:39;;;;;;;8.52;3.95;;;-4.60;95.90;;;;;;4990572;28;20034;-63
2024/01/08 05:14:05;;;;;;;9.40;4.18;;;-4.60;95.90;;;;;;4997854;28;20118;-63
2024/01/08 05:16:31;;;;;;;8.45;3.90;;;-4.70;96.20;;;;;;4998415;28;20089;-63
2024/01/08 05:18:57;;;;;;;9.05;3.88;;;-4.70;96.40;;;;;;4993826;28;20537;-63
2024/01/08 05:21:23;;;;;;;11.65;5.18;;;-4.70;96.40;;;;;;4993866;28;20069;-63
2024/01/08 05:23:49;;;;;;;9.13;3.47;;;-4.80;96.70;;;;;;4994105;28;20534;-63
2024/01/08 05:26:15;;;;;;;11.00;4.65;;;-4.80;96.40;;;;;;4995306;28;20037;-63
2024/01/08 05:28:40;;;;;;;9.13;4.03;;;-4.80;95.80;;;;;;4995726;28;20057;-63
2024/01/08 05:31:06;;;;;;;12.15;4.78;;;-5.00;95.60;;;;;;4994205;28;20056;-63
2024/01/08 05:33:32;;;;;;;10.07;3.83;;;-4.90;95.70;;;;;;4992138;28;20045;-63
2024/01/08 05:35:57;;;;;;;7.28;3.53;;;-4.90;96.10;;;;;;4996036;28;20042;-63
2024/01/08 05:38:24;;;;;;;10.57;4.25;;;-4.90;96.30;;;;;;4990228;28;20049;-63
2024/01/08 05:40:50;;;;;;;8.32;4.43;;;-4.90;95.60;;;;;;4995945;28;20030;-63
2024/01/08 05:43:16;;;;;;;13.88;3.90;;;-4.90;95.10;;;;;;4993503;28;20035;-63
2024/01/08 05:45:41;;;;;;;9.52;3.85;;;-4.90;94.70;;;;;;4994585;28;20034;-63
2024/01/08 05:48:07;;;;;;;11.57;3.65;;;-4.80;95.10;;;;;;4994822;28;20053;-63
2024/01/08 05:50:33;;;;;;;11.52;4.45;;;-4.80;94.40;;;;;;4992617;28;20233;-63
2024/01/08 05:53:00;;;;;;;10.20;3.67;;;-4.80;94.90;;;;;;4998096;28;20060;-63
2024/01/08 05:55:26;;;;;;;10.35;4.18;;;-4.80;94.60;;;;;;4996224;28;20038;-63
2024/01/08 05:57:52;;;;;;;8.43;4.03;;;-4.90;94.00;;;;;;5000454;28;20516;-63
2024/01/08 06:00:18;;;;;;;10.98;3.80;;;-4.80;94.60;;;;;;4997133;28;20066;-62
2024/01/08 06:02:44;;;;;;;9.20;4.35;;;-4.70;94.90;;;;;;4996589;28;20042;-62
2024/01/08 06:05:10;;;;;;;8.73;3.65;;;-4.70;94.70;;;;;;4999627;28;20498;-62
2024/01/08 06:07:36;;;;;;;7.70;3.95;;;-4.70;94.50;;;;;;5000512;28;20124;-62
2024/01/08 06:10:02;;;;;;;8.23;4.03;;;-4.60;94.90;;;;;;4994198;28;20038;-62
2024/01/08 06:12:29;;;;;;;8.45;4.03;;;-4.60;94.80;;;;;;4989521;28;22017;-62
2024/01/08 06:14:55;;;;;;;8.95;3.33;;;-4.60;95.20;;;;;;4991832;28;20034;-62
2024/01/08 06:17:21;;;;;;;9.20;3.97;;;-4.60;95.30;;;;;;4995271;28;20119;-63
2024/01/08 06:19:48;;;;;;;9.68;4.00;;;-4.60;95.60;;;;;;4998422;28;20183;-62
2024/01/08 06:22:17;;;;;;;11.07;3.90;;;-4.60;95.70;;;;;;4996357;28;20659;-62
2024/01/08 06:24:43;;;;;;;9.98;4.10;;;-4.60;95.90;;;;;;4998749;28;20030;-62
2024/01/08 06:27:09;;;;;;;10.25;3.97;;;-4.70;96.20;;;;;;4999970;28;20608;-62
2024/01/08 06:29:35;;;;;;;13.05;4.43;;;-4.70;96.10;;;;;;4995810;28;20038;-62
2024/01/08 06:32:00;;;;;;;10.00;4.35;;;-4.70;96.30;;;;;;5001110;28;20037;-63
2024/01/08 06:34:26;;;;;;;12.48;4.47;;;-4.80;96.30;;;;;;4993541;28;20081;-62
2024/01/08 06:36:52;;;;;;;12.23;5.13;;;-4.80;96.40;;;;;;4996037;28;20772;-62
2024/01/08 06:39:17;;;;;;;14.85;4.60;;;-4.80;96.60;;;;;;4997465;28;20042;-62
2024/01/08 06:41:43;;;;;;;10.98;4.13;;;-4.80;96.80;;;;;;5005875;28;20042;-62
2024/01/08 06:44:09;;;;;;;9.05;4.72;;;-4.80;96.70;;;;;;4989684;28;20034;-62
2024/01/08 06:46:35;;;;;;;10.93;4.13;;;-4.80;96.80;;;;;;5000656;28;20042;-62
2024/01/08 06:49:01;;;;;;;9.45;3.95;;;-4.90;96.90;;;;;;4993198;28;20045;-62
2024/01/08 06:51:27;;;;;;;10.27;3.67;;;-4.80;97.00;;;;;;4997651;28;20037;-62
2024/01/08 06:53:52;;;;;;;7.57;3.33;;;-4.90;97.00;;;;;;4996908;28;20389;-62
2024/01/08 06:56:18;;;;;;;7.80;4.45;;;-4.90;97.20;;;;;;4999095;28;20095;-62
2024/01/08 06:58:44;;;;;;;11.15;4.90;;;-4.90;97.20;;;;;;4996472;28;20046;-62
2024/01/08 07:01:10;;;;;;;8.57;3.75;;;-4.90;97.40;;;;;;4995479;28;20038;-63
2024/01/08 07:03:35;;;;;;;8.90;3.72;;;-4.90;97.60;;;;;;4992689;28;20494;-62
2024/01/08 07:06:02;;;;;;;8.95;3.95;;;-4.90;97.80;;;;;;4993925;28;20068;-63
2024/01/08 07:08:28;;;;;;;11.57;4.53;;;-4.90;97.80;;;;;;4994651;28;20037;-62
2024/01/08 07:10:54;;;;;;;12.05;4.43;;;-4.90;97.70;;;;;;4995054;28;20157;-62
2024/01/08 07:13:19;;;;;;;11.35;4.50;;;-4.90;97.50;;;;;;4995189;28;20573;-62
2024/01/08 07:15:47;;;;;;;12.27;4.63;;;-5.00;97.60;;;;;;4998039;28;20034;-62
2024/01/08 07:18:13;;;;;;;8.02;3.88;;;-5.00;97.70;;;;;;4990136;28;20383;-62
2024/01/08 07:20:40;;;;;;;9.43;4.43;;;-5.00;98.00;;;;;;4996850;28;20039;-62
2024/01/08 07:23:08;;;;;;;13.90;4.95;;;-5.10;98.20;;;;;;5011242;28;20026;-62
2024/01/08 07:25:38;;;;;;;13.27;4.40;;;-5.00;98.20;;;;;;4993580;28;20153;-62
2024/01/08 07:28:09;;;;;;;8.05;4.15;;;-5.00;98.20;;;;;;4997781;28;20038;-62
2024/01/08 07:30:35;;;;;;;9.13;4.20;;;-5.10;98.40;;;;;;4992647;28;20038;-62
2024/01/08 07:33:02;;;;;;;8.05;4.00;;;-5.00;98.60;;;;;;4992359;28;20034;-62
2024/01/08 07:35:27;;;;;;;10.30;4.18;;;-5.00;98.60;;;;;;4995686;28;20108;-62
2024/01/08 07:37:56;;;;;;;14.98;5.47;;;-5.00;98.30;;;;;;4995502;28;20030;-62
2024/01/08 07:40:24;;;;;;;9.50;4.68;;;-5.00;98.70;;;;;;4991076;28;20138;-62
2024/01/08 07:42:52;;;;;;;9.60;4.95;;;-4.90;98.90;;;;;;5011297;28;20161;-62
2024/01/08 07:45:18;;;;;;;8.48;3.85;;;-5.00;98.70;;;;;;4997480;28;20048;-62
2024/01/08 07:47:44;;;;;;;9.93;3.75;;;-4.90;99.00;;;;;;4990562;28;20031;-61
2024/01/08 07:50:10;;;;;;;9.50;5.00;;;-4.90;98.80;;;;;;4995924;28;20129;-62
2024/01/08 07:52:36;;;;;;;14.07;5.15;;;-4.80;98.80;;;;;;4993820;28;20042;-62
2024/01/08 07:55:06;;;;;;;12.35;4.63;;;-4.70;98.90;;;;;;4997447;28;20096;-62
2024/01/08 07:57:32;;;;;;;9.77;4.30;;;-4.70;99.00;;;;;;4991778;28;20556;-62
2024/01/08 07:59:57;;;;;;;9.60;4.93;;;-4.70;99.00;;;;;;5000222;28;20030;-62
2024/01/08 08:02:23;;;;;;;10.20;3.85;;;-4.60;98.90;;;;;;4991432;28;20062;-62
2024/01/08 08:04:50;;;;;;;12.63;5.53;;;-4.60;98.80;;;;;;4986171;28;20030;-63
2024/01/08 08:07:16;;;;;;;13.00;4.63;;;-4.60;99.00;;;;;;4987370;28;20049;-62
2024/01/08 08:09:42;;;;;;;12.07;5.32;;;-4.50;99.00;;;;;;4993600;28;20034;-62
2024/01/08 08:12:09;;;;;;;11.75;4.80;;;-4.40;98.60;;;;;;4991343;28;20124;-63
2024/01/08 08:14:36;;;;;;;11.68;4.85;;;-4.30;97.90;;;;;;4991296;28;20143;-62
2024/01/08 08:17:05;;;;;;;10.50;5.00;;;-4.40;97.70;;;;;;4996870;28;20520;-62
2024/01/08 08:19:31;;;;;;;15.05;5.15;;;-4.30;98.00;;;;;;4988838;28;20033;-62
2024/01/08 08:21:57;;;;;;;10.80;4.68;;;-4.20;97.50;;;;;;4993451;28;20676;-63
2024/01/08 08:24:23;;;;;;;12.02;5.43;;;-4.20;97.40;;;;;;4996884;28;20042;-62
2024/01/08 08:26:50;;;;;;;9.30;4.40;;;-4.10;97.30;;;;;;4993905;28;20041;-62
2024/01/08 08:29:16;;;;;;;12.80;4.95;;;-4.10;97.00;;;;;;4993261;28;20038;-62
2024/01/08 08:31:42;;;;;;;9.48;4.65;;;-4.00;96.90;;;;;;4985242;28;20053;-62
2024/01/08 08:34:09;;;;;;;9.73;4.10;;;-3.90;97.20;;;;;;4994138;28;20762;-62
2024/01/08 08:36:37;;;;;;;10.35;4.53;;;-3.80;97.50;;;;;;4997911;28;20429;-62
2024/01/08 08:39:03;;;;;;;8.20;4.45;;;-3.80;96.80;;;;;;4993354;28;20042;-62
2024/01/08 08:41:29;;;;;;;15.02;5.68;;;-3.70;96.80;;;;;;4992086;28;20037;-62
2024/01/08 08:43:55;;;;;;;11.68;5.35;;;-3.70;96.60;;;;;;4999235;28;20370;-62
2024/01/08 08:46:20;;;;;;;13.32;5.43;;;-3.50;97.00;;;;;;4993223;28;20117;-62
2024/01/08 08:48:46;;;;;;;9.48;4.60;;;-3.40;96.90;;;;;;4991767;28;20041;-63
2024/01/08 08:51:12;;;;;;;12.48;5.55;;;-3.40;96.90;;;;;;4994152;28;20081;-62
2024/01/08 08:53:38;;;;;;;12.15;5.05;;;-3.30;96.40;;;;;;4986578;28;20044;-62
2024/01/08 08:56:04;;;;;;;10.55;5.18;;;-3.20;96.20;;;;;;4995535;28;20038;-63
2024/01/08 08:58:30;;;;;;;8.10;4.68;;;-3.20;96.40;;;;;;4992457;28;20038;-63
2024/01/08 09:00:56;;;;;;;11.25;4.65;;;-3.30;95.70;;;;;;4993747;28;20034;-63
2024/01/08 09:03:22;;;;;;;12.23;4.88;;;-3.20;95.70;;;;;;4989648;28;20034;-63
2024/01/08 09:05:48;;;;;;;11.73;5.60;;;-3.10;95.60;;;;;;5011651;28;20030;-63
2024/01/08 09:08:14;;;;;;;10.63;5.22;;;-3.00;95.70;;;;;;4994616;28;20026;-63
2024/01/08 09:10:40;;;;;;;11.05;4.55;;;-2.90;95.50;;;;;;4992039;28;20383;-63
2024/01/08 09:13:05;;;;;;;11.85;5.18;;;-2.80;94.80;;;;;;4996815;28;20038;-63
2024/01/08 09:15:31;;;;;;;12.15;5.25;;;-2.70;94.30;;;;;;4990446;28;20045;-63
2024/01/08 09:17:57;;;;;;;13.13;5.43;;;-2.70;94.10;;;;;;4995421;28;20045;-62
2024/01/08 09:20:23;;;;;;;9.40;5.07;;;-2.20;94.40;;;;;;4992792;28;20441;-63
2024/01/08 09:22:48;;;;;;;11.82;5.18;;;-1.10;92.30;;;;;;4996638;28;20402;-62
2024/01/08 09:25:14;;;;;;;11.98;4.82;;;-0.10;89.80;;;;;;4991000;28;20033;-62
2024/01/08 09:27:42;;;;;;;15.20;4.90;;;0.40;86.70;;;;;;4990019;28;20034;-63
2024/01/08 09:30:08;;;;;;;11.77;5.10;;;1.00;81.70;;;;;;4997063;28;20041;-62
2024/01/08 09:32:34;;;;;;;13.52;4.88;;;1.90;78.20;;;;;;4993104;28;20041;-62
2024/01/08 09:35:00;;;;;;;8.68;4.68;;;2.70;72.10;;;;;;5000478;28;20116;-62
2024/01/08 09:37:26;;;;;;;12.65;4.65;;;3.60;69.30;;;;;;4993003;28;20038;-62
2024/01/08 09:39:53;;;;;;;10.93;4.63;;;4.20;63.90;;;;;;4996637;28;20481;-62
2024/01/08 09:42:21;;;;;;;11.30;4.97;;;4.50;62.70;;;;;;4998301;28;20050;-62
2024/01/08 09:44:53;;;;;;;11.48;5.18;;;5.10;62.10;;;;;;4995163;28;20474;-62
2024/01/08 09:47:20;;;;;;;11.75;4.65;;;5.80;59.00;;;;;;4996478;28;20034;-62
2024/01/08 09:49:46;;;;;;;9.95;4.28;;;6.50;56.20;;;;;;5002084;28;20056;-61
2024/01/08 09:52:17;;;;;;;9.77;5.30;;;6.90;54.40;;;;;;4993591;28;20371;-62
2024/01/08 09:54:43;;;;;;;9.88;4.20;;;7.20;52.10;;;;;;4996111;28;20054;-61
2024/01/08 09:57:09;;;;;;;9.50;4.70;;;7.50;51.20;;;;;;4997751;28;20116;-62
2024/01/08 09:59:35;;;;;;;12.32;4.75;;;7.80;50.30;;;;;;4996882;28;20030;-62
2024/01/08 10:02:02;;;;;;;9.75;4.95;;;8.10;49.80;;;;;;5000161;28;20141;-62
2024/01/08 10:04:29;;;;;;;10.55;4.90;;;8.20;49.30;;;;;;4996614;28;20037;-62
2024/01/08 10:07:08;;;;;;;10.05;5.35;;;8.20;47.80;;;;;;4997799;28;20113;-62
2024/01/08 10:09:34;;;;;;;11.68;5.13;;;8.50;47.60;;;;;;4996341;28;20116;-61
2024/01/08 10:12:00;;;;;;;10.75;4.82;;;8.50;48.40;;;;;;4997760;28;20437;-62
2024/01/08 10:14:27;;;;;;;10.05;4.72;;;8.90;46.50;;;;;;4995402;28;20041;-61
2024/01/08 10:16:55;;;;;;;10.68;5.00;;;9.20;46.20;;;;;;5003911;28;20045;-61
2024/01/08 10:19:24;;;;;;;11.43;4.45;;;8.80;45.80;;;;;;4998032;28;20034;-63
2024/01/08 10:22:10;;;;;;;9.48;4.75;;;8.60;46.40;;;;;;4999597;28;20041;-62
2024/01/08 10:24:38;;;;;;;8.90;4.55;;;8.80;46.60;;;;;;4997965;28;20030;-61
2024/01/08 10:27:05;;;;;;;10.13;4.88;;;9.20;44.60;;;;;;4995957;28;20120;-61
2024/01/08 10:29:31;;;;;;;12.32;4.95;;;9.70;44.40;;;;;;4995458;28;20038;-62
2024/01/08 10:31:57;;;;;;;10.50;5.13;;;10.00;43.80;;;;;;4998265;28;20077;-62
2024/01/08 10:34:25;;;;;;;7.72;4.50;;;9.80;44.90;;;;;;4996600;28;20653;-62
2024/01/08 10:36:52;;;;;;;9.38;4.13;;;9.90;45.10;;;;;;4995257;28;20054;-62
2024/01/08 10:39:19;;;;;;;9.95;3.97;;;9.60;44.50;;;;;;4996390;28;20065;-61
2024/01/08 10:41:44;;;;;;;11.75;4.78;;;9.20;44.70;;;;;;4997258;28;20065;-61
2024/01/08 10:44:10;;;;;;;10.75;4.20;;;8.90;45.70;;;;;;4996466;28;20042;-61
2024/01/08 10:46:56;;;;;;;7.60;4.47;;;9.00;44.30;;;;;;4995768;28;20042;-61
2024/01/08 10:49:32;;;;;;;11.23;4.93;;;9.40;43.10;;;;;;4992234;28;20042;-62
2024/01/08 10:51:59;;;;;;;;;;;10.10;42.70;;;;;;4997080;28;20049;-62
2024/01/08 10:54:27;;;;;;;;;;;10.10;43.00;;;;;;4993375;28;20044;-61
2024/01/08 10:56:57;;;;;;;9.95;4.32;;;10.70;41.40;;;;;;4996039;28;20023;-62
2024/01/08 10:59:24;;;;;;;9.45;4.35;;;10.80;42.00;;;;;;4993654;28;20070;-61
2024/01/08 11:01:50;;;;;;;9.50;4.43;;;10.90;41.50;;;;;;4997893;28;20030;-61
2024/01/08 11:04:16;;;;;;;9.57;4.60;;;11.30;41.40;;;;;;4994117;28;20065;-62
2024/01/08 11:06:44;;;;;;;10.18;4.47;;;11.60;40.70;;;;;;4999001;28;20061;-61
2024/01/08 11:09:31;;;;;;;9.10;4.03;;;11.60;40.70;;;;;;4998534;28;20042;-61
2024/01/08 11:11:57;;;;;;;8.18;3.97;;;11.40;40.40;;;;;;4996460;28;20045;-61
2024/01/08 11:14:24;;;;;;;8.52;4.40;;;11.00;40.00;;;;;;4994413;28;20034;-62
2024/01/08 11:16:50;;;;;;;8.95;4.50;;;10.40;42.00;;;;;;4996190;28;20521;-62
2024/01/08 11:19:18;;;;;;;9.23;4.93;;;9.90;41.90;;;;;;4994461;28;20069;-61
2024/01/08 11:21:47;;;;;;;7.20;3.90;;;9.40;43.00;;;;;;4997790;28;20030;-62
2024/01/08 11:24:13;;;;;;;8.40;3.80;;;8.80;43.50;;;;;;4987448;28;20100;-62
2024/01/08 11:26:47;;;;;;;9.27;4.10;;;7.20;45.80;;;;;;4995270;28;20030;-61
2024/01/08 11:29:16;;;;;;;8.10;3.85;;;5.50;48.60;;;;;;4994663;28;20038;-62
2024/01/08 11:32:10;;;;;;;7.60;3.90;;;4.00;51.30;;;;;;4995525;28;20379;-61
2024/01/08 11:35:03;;;;;;;7.78;4.15;;;3.00;53.80;;;;;;4995910;28;20042;-62
2024/01/08 11:37:40;;;;;;;7.10;4.05;;;2.10;57.40;;;;;;4993375;28;20057;-62
2024/01/08 11:40:17;;;;;;;5.50;3.60;;;1.70;59.10;;;;;;4997120;28;20040;-62
2024/01/08 11:42:50;;;;;;;10.90;4.13;;;1.40;61.40;;;;;;4994760;28;20034;-62
2024/01/08 11:45:16;;;;;;;10.70;4.20;;;1.40;61.40;;;;;;5000823;28;20095;-62
2024/01/08 11:47:43;;;;;;;9.32;3.40;;;1.40;61.60;;;;;;4997309;28;20469;-62
2024/01/08 11:50:10;;;;;;;8.07;3.38;;;1.30;60.80;;;;;;4991662;28;20544;-62
2024/01/08 11:52:37;;;;;;;6.88;3.63;;;1.20;60.00;;;;;;4995687;28;20778;-62
2024/01/08 11:55:05;;;;;;;7.30;3.58;;;1.20;60.50;;;;;;4994164;28;20076;-62
2024/01/08 11:57:31;;;;;;;9.02;3.70;;;1.20;60.80;;;;;;4993802;28;20042;-62
2024/01/08 11:59:57;;;;;;;9.20;3.92;;;1.00;62.40;;;;;;4991737;28;20229;-62
2024/01/08 12:02:26;;;;;;;8.40;3.92;;;1.00;61.80;;;;;;4994321;28;20557;-62
2024/01/08 12:04:57;;;;;;;8.15;4.10;;;0.90;62.70;;;;;;4997665;28;20042;-62
2024/01/08 12:07:24;;;;;;;7.32;3.80;;;0.80;63.00;;;;;;4996000;28;20049;-62
2024/01/08 12:09:50;;;;;;;8.95;3.70;;;0.90;63.00;;;;;;4991955;28;20494;-63
2024/01/08 12:12:17;;;;;;;8.05;3.45;;;0.80;64.00;;;;;;4997232;28;20026;-63
2024/01/08 12:14:44;;;;;;;5.82;3.10;;;0.70;63.00;;;;;;4995533;28;20499;-62
2024/01/08 12:17:12;;;;;;;9.20;3.60;;;0.70;62.70;;;;;;4986885;28;20656;-63
2024/01/08 12:19:47;;;;;;;6.93;3.42;;;0.60;62.80;;;;;;4997339;28;20034;-62
2024/01/08 12:22:15;;;;;;;7.78;4.07;;;0.50;64.10;;;;;;4996447;28;20054;-63
2024/01/08 12:24:42;;;;;;;7.40;3.38;;;0.40;65.30;;;;;;4992511;28;20037;-62
2024/01/08 12:27:09;;;;;;;8.77;3.30;;;0.40;63.60;;;;;;4996981;28;20030;-62
2024/01/08 12:29:42;;;;;;;8.70;3.38;;;0.20;64.10;;;;;;4989685;28;20046;-63
2024/01/08 12:32:13;;;;;;;6.82;2.72;;;0.30;65.90;;;;;;4986773;28;20039;-63
2024/01/08 12:34:42;;;;;;;8.10;3.50;;;0.10;65.10;;;;;;4995871;28;20034;-63
2024/01/08 12:37:09;;;;;;;7.43;3.58;;;0.10;63.10;;;;;;4992465;28;20156;-63
2024/01/08 12:39:36;;;;;;;6.70;2.75;;;0.00;63.10;;;;;;4994817;28;20049;-62
2024/01/08 12:42:11;;;;;;;9.48;3.13;;;0.00;62.40;;;;;;4994188;28;20042;-62
2024/01/08 12:44:37;;;;;;;5.95;3.20;;;0.00;62.80;;;;;;4988425;28;20088;-62